createdAt,value
2022-12-18T00:01:36.527Z,4.35
2022-12-18T00:04:06.564Z,4.90
2022-12-18T00:06:33.948Z,5.20
2022-12-18T00:09:01.979Z,4.63
2022-12-18T00:11:31.391Z,4.28
2022-12-18T00:14:00.251Z,4.80
2022-12-18T00:16:28.691Z,4.90
2022-12-18T00:18:59.231Z,4.20
2022-12-18T00:21:27.317Z,4.50
2022-12-18T00:23:56.151Z,4.80
2022-12-18T00:26:29.404Z,4.68
2022-12-18T00:29:08.568Z,4.50
2022-12-18T00:31:35.857Z,4.35
2022-12-18T00:34:03.114Z,4.30
2022-12-18T00:36:33.260Z,4.18
2022-12-18T00:39:02.157Z,4.35
2022-12-18T00:41:29.236Z,3.83
2022-12-18T00:43:57.467Z,4.07
2022-12-18T00:46:24.249Z,4.10
2022-12-18T00:48:51.065Z,4.18
2022-12-18T00:51:17.866Z,4.78
2022-12-18T00:53:44.826Z,3.93
2022-12-18T00:56:11.659Z,4.30
2022-12-18T00:58:38.498Z,4.00
2022-12-18T01:01:06.617Z,3.95
2022-12-18T01:03:36.296Z,4.60
2022-12-18T01:06:12.729Z,3.67
2022-12-18T01:08:40.309Z,3.63
2022-12-18T01:11:14.890Z,4.00
2022-12-18T01:13:42.700Z,4.20
2022-12-18T01:16:12.115Z,3.92
2022-12-18T01:18:38.975Z,3.73
2022-12-18T01:21:15.449Z,3.28
2022-12-18T01:23:42.764Z,3.70
2022-12-18T01:26:17.262Z,3.90
2022-12-18T01:28:44.501Z,3.53
2022-12-18T01:31:27.229Z,3.10
2022-12-18T01:33:56.404Z,3.20
2022-12-18T01:36:28.637Z,3.38
2022-12-18T01:38:56.562Z,3.10
2022-12-18T01:41:27.421Z,3.10
2022-12-18T01:43:57.692Z,2.97
2022-12-18T01:46:25.972Z,3.10
2022-12-18T01:49:02.348Z,2.83
2022-12-18T01:51:31.786Z,3.10
2022-12-18T01:54:00.393Z,2.85
2022-12-18T01:56:28.034Z,2.97
2022-12-18T01:59:14.916Z,3.22
2022-12-18T02:01:41.797Z,2.85
2022-12-18T02:04:22.182Z,3.22
2022-12-18T02:06:56.764Z,3.78
2022-12-18T02:09:33.473Z,3.40
2022-12-18T02:12:17.903Z,3.60
2022-12-18T02:14:47.573Z,4.28
2022-12-18T02:17:23.444Z,3.97
2022-12-18T02:19:56.784Z,4.47
2022-12-18T02:22:45.407Z,4.70
2022-12-18T02:25:27.153Z,4.85
2022-12-18T02:27:57.685Z,5.10
2022-12-18T02:30:25.353Z,4.50
2022-12-18T02:32:54.955Z,4.80
2022-12-18T02:35:25.940Z,4.23
2022-12-18T02:37:56.404Z,4.72
2022-12-18T02:40:26.525Z,4.80
2022-12-18T02:42:53.334Z,5.07
2022-12-18T02:45:21.323Z,5.35
2022-12-18T02:47:51.158Z,5.03
2022-12-18T02:50:35.255Z,5.68
2022-12-18T02:53:18.698Z,4.57
2022-12-18T02:55:46.801Z,4.47
2022-12-18T02:58:22.146Z,4.90
2022-12-18T03:01:00.014Z,4.50
2022-12-18T03:03:39.375Z,4.03
2022-12-18T03:06:12.057Z,3.70
2022-12-18T03:08:53.038Z,3.70
2022-12-18T03:11:20.059Z,3.70
2022-12-18T03:13:53.857Z,3.50
2022-12-18T03:16:29.826Z,3.70
2022-12-18T03:19:01.949Z,3.78
2022-12-18T03:21:36.469Z,3.67
2022-12-18T03:24:08.963Z,3.95
2022-12-18T03:26:41.863Z,3.63
2022-12-18T03:29:24.742Z,3.72
2022-12-18T03:31:56.952Z,3.90
2022-12-18T03:34:36.773Z,4.18
2022-12-18T03:37:08.254Z,4.22
2022-12-18T03:39:37.902Z,4.93
2022-12-18T03:42:40.403Z,5.03
2022-12-18T03:45:19.682Z,5.00
2022-12-18T03:48:00.960Z,5.13
2022-12-18T03:50:59.202Z,5.22
2022-12-18T03:53:45.323Z,4.90
2022-12-18T03:56:15.282Z,4.75
2022-12-18T03:58:44.957Z,4.60
2022-12-18T04:01:21.935Z,4.68
2022-12-18T04:03:50.624Z,4.60
2022-12-18T04:06:20.714Z,5.13
2022-12-18T04:08:48.578Z,5.85
2022-12-18T04:11:20.503Z,5.78
2022-12-18T04:13:48.246Z,6.25
2022-12-18T04:16:20.824Z,5.72
2022-12-18T04:18:52.039Z,5.97
2022-12-18T04:21:20.546Z,5.40
2022-12-18T04:23:48.809Z,5.65
2022-12-18T04:26:18.195Z,6.05
2022-12-18T04:28:54.476Z,5.30
2022-12-18T04:31:22.598Z,5.57
2022-12-18T04:33:50.095Z,5.88
2022-12-18T04:36:17.478Z,6.15
2022-12-18T04:38:45.533Z,5.45
2022-12-18T04:41:15.586Z,5.50
2022-12-18T04:43:44.626Z,5.20
2022-12-18T04:46:11.405Z,5.57
2022-12-18T04:48:39.272Z,5.97
2022-12-18T04:51:07.459Z,5.35
2022-12-18T04:53:34.813Z,5.25
2022-12-18T04:56:12.409Z,5.67
2022-12-18T04:58:41.558Z,5.50
2022-12-18T05:01:09.408Z,5.53
2022-12-18T05:03:37.583Z,5.63
2022-12-18T05:06:06.009Z,5.82
2022-12-18T05:08:33.213Z,5.07
2022-12-18T05:11:09.369Z,5.50
2022-12-18T05:13:38.727Z,5.30
2022-12-18T05:16:07.445Z,5.40
2022-12-18T05:18:34.872Z,5.85
2022-12-18T05:21:02.023Z,5.57
2022-12-18T05:23:29.272Z,4.80
2022-12-18T05:26:02.352Z,5.80
2022-12-18T05:28:31.645Z,5.38
2022-12-18T05:31:01.826Z,5.50
2022-12-18T05:33:32.672Z,5.57
2022-12-18T05:36:01.521Z,5.55
2022-12-18T05:38:30.105Z,5.72
2022-12-18T05:40:57.986Z,5.40
2022-12-18T05:43:27.927Z,5.35
2022-12-18T05:45:55.584Z,6.97
2022-12-18T05:48:22.996Z,6.22
2022-12-18T05:50:51.368Z,6.10
2022-12-18T05:53:20.576Z,5.32
2022-12-18T05:55:48.534Z,5.72
2022-12-18T05:58:16.297Z,5.60
2022-12-18T06:00:46.016Z,5.75
2022-12-18T06:03:14.627Z,5.97
2022-12-18T06:05:44.796Z,6.00
2022-12-18T06:08:13.356Z,5.82
2022-12-18T06:10:40.691Z,5.77
2022-12-18T06:13:08.397Z,5.57
2022-12-18T06:15:38.315Z,5.68
2022-12-18T06:18:05.116Z,6.05
2022-12-18T06:20:33.612Z,5.40
2022-12-18T06:23:01.342Z,5.47
2022-12-18T06:25:28.188Z,5.82
2022-12-18T06:27:55.065Z,5.63
2022-12-18T06:30:21.957Z,6.25
2022-12-18T06:32:56.418Z,6.40
2022-12-18T06:35:24.143Z,6.17
2022-12-18T06:37:50.925Z,6.03
2022-12-18T06:40:18.188Z,5.90
2022-12-18T06:42:45.052Z,5.90
2022-12-18T06:45:12.057Z,6.10
2022-12-18T06:47:41.664Z,5.83
2022-12-18T06:50:09.174Z,6.35
2022-12-18T06:52:35.939Z,5.70
2022-12-18T06:55:03.003Z,5.93
2022-12-18T06:57:29.949Z,5.82
2022-12-18T06:59:56.751Z,6.93
2022-12-18T07:02:23.584Z,6.32
2022-12-18T07:04:50.434Z,6.60
2022-12-18T07:07:17.877Z,6.32
2022-12-18T07:09:44.649Z,6.07
2022-12-18T07:12:11.446Z,5.80
2022-12-18T07:14:38.236Z,6.03
2022-12-18T07:17:05.089Z,5.97
2022-12-18T07:19:33.591Z,6.00
2022-12-18T07:22:00.505Z,6.40
2022-12-18T07:24:27.413Z,6.73
2022-12-18T07:26:54.331Z,6.78
2022-12-18T07:29:22.173Z,6.35
2022-12-18T07:31:49.355Z,6.03
2022-12-18T07:34:16.412Z,6.05
2022-12-18T07:36:43.252Z,6.27
2022-12-18T07:39:12.489Z,7.18
2022-12-18T07:41:43.751Z,6.75
2022-12-18T07:44:16.250Z,7.60
2022-12-18T07:46:43.185Z,7.78
2022-12-18T07:49:09.918Z,7.27
2022-12-18T07:51:36.769Z,7.20
2022-12-18T07:54:03.594Z,6.45
2022-12-18T07:56:31.676Z,6.50
2022-12-18T07:59:00.313Z,6.05
2022-12-18T08:01:30.637Z,6.33
2022-12-18T08:03:58.543Z,6.30
2022-12-18T08:06:25.335Z,6.13
2022-12-18T08:08:56.421Z,6.05
2022-12-18T08:11:24.854Z,7.03
2022-12-18T08:13:52.139Z,6.60
2022-12-18T08:16:20.044Z,6.85
2022-12-18T08:18:47.698Z,6.45
2022-12-18T08:21:17.287Z,6.45
2022-12-18T08:23:44.355Z,6.70
2022-12-18T08:26:14.737Z,6.80
2022-12-18T08:28:41.886Z,7.45
2022-12-18T08:31:10.061Z,7.78
2022-12-18T08:33:38.766Z,7.80
2022-12-18T08:36:06.726Z,7.30
2022-12-18T08:38:34.193Z,7.30
2022-12-18T08:41:01.850Z,7.47
2022-12-18T08:43:29.037Z,7.53
2022-12-18T08:45:56.095Z,7.30
2022-12-18T08:48:23.025Z,7.22
2022-12-18T08:50:57.519Z,7.57
2022-12-18T08:53:27.559Z,7.32
2022-12-18T08:55:59.872Z,7.28
2022-12-18T08:58:26.779Z,7.10
2022-12-18T09:00:53.578Z,7.57
2022-12-18T09:03:20.902Z,7.67
2022-12-18T09:05:47.781Z,8.15
2022-12-18T09:08:14.652Z,8.52
2022-12-18T09:10:46.388Z,8.85
2022-12-18T09:13:13.966Z,9.05
2022-12-18T09:15:44.603Z,8.03
2022-12-18T09:18:11.403Z,8.25
2022-12-18T09:20:39.301Z,9.05
2022-12-18T09:23:06.689Z,8.48
2022-12-18T09:25:34.486Z,8.70
2022-12-18T09:28:01.387Z,9.43
2022-12-18T09:30:28.985Z,10.20
2022-12-18T09:32:56.036Z,9.15
2022-12-18T09:35:23.126Z,10.20
2022-12-18T09:37:49.917Z,10.35
2022-12-18T09:40:23.410Z,10.47
2022-12-18T09:42:56.187Z,10.68
2022-12-18T09:45:24.487Z,10.48
2022-12-18T09:47:53.381Z,10.82
2022-12-18T09:50:35.857Z,9.82
2022-12-18T09:53:19.446Z,9.93
2022-12-18T09:55:49.365Z,10.18
2022-12-18T09:58:28.258Z,10.98
2022-12-18T10:00:55.682Z,9.85
2022-12-18T10:03:22.896Z,9.48
2022-12-18T10:06:07.730Z,10.33
2022-12-18T10:08:49.297Z,10.45
2022-12-18T10:11:43.351Z,10.90
2022-12-18T10:14:37.444Z,10.63
2022-12-18T10:17:20.047Z,10.32
2022-12-18T10:19:56.007Z,10.10
2022-12-18T10:22:54.964Z,9.95
2022-12-18T10:25:26.472Z,10.13
2022-12-18T10:28:01.156Z,9.13
2022-12-18T10:30:28.042Z,8.63
2022-12-18T10:32:54.908Z,8.90
2022-12-18T10:35:25.021Z,8.63
2022-12-18T10:38:04.017Z,8.15
2022-12-18T10:40:31.255Z,8.13
2022-12-18T10:43:05.996Z,9.55
2022-12-18T10:45:32.869Z,8.53
2022-12-18T10:48:00.034Z,8.93
2022-12-18T10:51:08.738Z,8.60
2022-12-18T10:53:24.705Z,8.05
2022-12-18T10:55:55.059Z,8.48
2022-12-18T10:58:27.489Z,9.00
2022-12-18T11:01:18.158Z,9.60
2022-12-18T11:04:10.427Z,9.15
2022-12-18T11:06:54.370Z,9.10
2022-12-18T11:09:23.891Z,9.73
2022-12-18T11:11:52.309Z,9.63
2022-12-18T11:14:47.335Z,10.63
2022-12-18T11:17:35.593Z,9.80
2022-12-18T11:20:06.332Z,9.60
2022-12-18T11:22:35.853Z,10.18
2022-12-18T11:27:57.634Z,10.00
2022-12-18T11:30:28.984Z,10.57
2022-12-18T11:33:01.592Z,9.15
2022-12-18T11:35:28.261Z,9.77
2022-12-18T11:38:00.719Z,9.23
2022-12-18T11:40:41.259Z,10.00
2022-12-18T11:43:15.936Z,9.52
2022-12-18T11:45:53.623Z,10.10
2022-12-18T11:48:29.106Z,9.63
2022-12-18T11:50:58.580Z,8.93
2022-12-18T11:53:27.277Z,9.20
2022-12-18T11:55:59.844Z,9.25
2022-12-18T11:58:47.679Z,10.05
2022-12-18T12:01:26.661Z,9.82
2022-12-18T12:04:08.350Z,9.57
2022-12-18T12:07:03.332Z,9.70
2022-12-18T12:10:19.688Z,9.10
2022-12-18T12:12:48.663Z,9.82
2022-12-18T12:15:45.601Z,9.65
2022-12-18T12:18:24.287Z,8.60
2022-12-18T12:20:54.571Z,9.27
2022-12-18T12:23:26.084Z,9.40
2022-12-18T12:26:03.960Z,9.05
2022-12-18T12:28:42.821Z,9.85
2022-12-18T12:31:31.030Z,10.20
2022-12-18T12:34:04.872Z,10.40
2022-12-18T12:36:39.115Z,10.27
2022-12-18T12:39:12.773Z,9.98
2022-12-18T12:41:42.695Z,10.40
2022-12-18T12:44:17.538Z,9.87
2022-12-18T12:46:44.863Z,9.65
2022-12-18T12:49:16.836Z,10.00
2022-12-18T12:51:48.660Z,9.45
2022-12-18T12:54:24.636Z,10.35
2022-12-18T12:57:24.437Z,10.23
2022-12-18T13:00:14.043Z,9.88
2022-12-18T13:02:54.046Z,9.55
2022-12-18T13:05:39.658Z,9.80
2022-12-18T13:08:12.457Z,10.02
2022-12-18T13:10:41.930Z,9.80
2022-12-18T13:13:10.669Z,9.35
2022-12-18T13:15:46.324Z,9.27
2022-12-18T13:18:24.901Z,9.63
2022-12-18T13:21:04.942Z,9.65
2022-12-18T13:23:41.883Z,10.40
2022-12-18T13:26:09.351Z,10.60
2022-12-18T13:28:48.260Z,10.38
2022-12-18T13:31:36.517Z,9.43
2022-12-18T13:34:26.760Z,10.07
2022-12-18T13:36:57.046Z,10.20
2022-12-18T13:39:34.751Z,8.90
2022-12-18T13:42:08.356Z,9.88
2022-12-18T13:44:40.902Z,9.00
2022-12-18T13:47:32.166Z,9.82
2022-12-18T13:49:59.377Z,9.37
2022-12-18T13:52:29.346Z,9.40
2022-12-18T13:54:59.498Z,9.02
2022-12-18T13:57:28.980Z,9.05
2022-12-18T13:59:58.697Z,10.13
2022-12-18T14:02:28.353Z,9.67
2022-12-18T14:04:56.555Z,9.40
2022-12-18T14:07:31.478Z,8.70
2022-12-18T14:10:40.796Z,9.15
2022-12-18T14:12:52.649Z,7.97
2022-12-18T14:15:42.289Z,8.87
2022-12-18T14:18:32.299Z,9.10
2022-12-18T14:21:01.701Z,9.88
2022-12-18T14:23:43.212Z,9.13
2022-12-18T14:26:28.569Z,10.55
2022-12-18T14:29:16.424Z,11.90
2022-12-18T14:31:44.327Z,11.07
2022-12-18T14:34:18.361Z,11.75
2022-12-18T14:36:54.220Z,11.02
2022-12-18T14:39:21.194Z,10.65
2022-12-18T14:41:49.993Z,10.20
2022-12-18T14:44:16.992Z,11.13
2022-12-18T14:46:46.185Z,10.55
2022-12-18T14:49:19.368Z,10.80
2022-12-18T14:51:52.795Z,11.02
2022-12-18T14:54:22.171Z,11.37
2022-12-18T14:57:00.757Z,11.35
2022-12-18T14:59:29.685Z,11.73
2022-12-18T15:02:14.839Z,11.48
2022-12-18T15:04:45.174Z,11.75
2022-12-18T15:07:17.245Z,12.13
2022-12-18T15:10:02.022Z,11.18
2022-12-18T15:12:44.852Z,12.35
2022-12-18T15:15:37.636Z,11.90
2022-12-18T15:18:12.673Z,11.23
2022-12-18T15:20:46.306Z,11.90
2022-12-18T15:23:50.220Z,12.23
2022-12-18T15:26:20.209Z,12.07
2022-12-18T15:28:51.854Z,12.00
2022-12-18T15:31:32.876Z,12.05
2022-12-18T15:34:14.122Z,11.70
2022-12-18T15:36:41.723Z,12.20
2022-12-18T15:39:12.972Z,14.05
2022-12-18T15:41:41.043Z,12.48
2022-12-18T15:44:26.251Z,12.73
2022-12-18T15:46:53.932Z,12.23
2022-12-18T15:49:21.833Z,11.13
2022-12-18T15:51:56.278Z,12.02
2022-12-18T15:54:24.292Z,11.85
2022-12-18T15:56:51.624Z,11.38
2022-12-18T15:59:21.010Z,11.70
2022-12-18T16:01:51.213Z,10.68
2022-12-18T16:04:21.570Z,10.90
2022-12-18T16:09:39.543Z,10.90
2022-12-18T16:12:25.311Z,11.20
2022-12-18T16:14:53.007Z,10.10
2022-12-18T16:17:20.541Z,9.68
2022-12-18T16:19:56.738Z,9.63
2022-12-18T16:22:27.582Z,9.48
2022-12-18T16:24:56.513Z,10.57
2022-12-18T16:27:25.554Z,10.30
2022-12-18T16:29:53.470Z,9.10
2022-12-18T16:32:26.412Z,9.25
2022-12-18T16:34:54.601Z,9.68
2022-12-18T16:37:23.933Z,9.13
2022-12-18T16:39:51.620Z,9.45
2022-12-18T16:42:21.511Z,9.07
2022-12-18T16:44:50.700Z,9.73
2022-12-18T16:47:18.804Z,9.15
2022-12-18T16:49:47.101Z,9.30
2022-12-18T16:52:17.795Z,8.93
2022-12-18T16:54:45.884Z,8.38
2022-12-18T16:57:15.823Z,8.70
2022-12-18T16:59:45.329Z,8.40
2022-12-18T17:02:27.305Z,8.40
2022-12-18T17:04:59.420Z,8.68
2022-12-18T17:07:28.679Z,9.05
2022-12-18T17:09:56.793Z,8.63
2022-12-18T17:12:28.201Z,8.93
2022-12-18T17:14:56.293Z,7.87
2022-12-18T17:17:24.339Z,8.77
2022-12-18T17:19:53.115Z,9.32
2022-12-18T17:22:22.369Z,9.32
2022-12-18T17:24:51.727Z,9.30
2022-12-18T17:27:19.632Z,9.33
2022-12-18T17:29:48.781Z,9.98
2022-12-18T17:32:18.789Z,9.20
2022-12-18T17:34:47.419Z,8.07
2022-12-18T17:37:15.919Z,9.20
2022-12-18T17:39:44.273Z,8.57
2022-12-18T17:42:15.446Z,8.40
2022-12-18T17:44:45.072Z,9.18
2022-12-18T17:47:14.842Z,8.10
2022-12-18T17:49:43.783Z,8.30
2022-12-18T17:52:11.952Z,7.47
2022-12-18T17:54:40.061Z,8.40
2022-12-18T17:57:08.276Z,8.48
2022-12-18T17:59:36.005Z,8.30
2022-12-18T18:02:03.913Z,7.95
2022-12-18T18:04:32.855Z,7.33
2022-12-18T18:07:01.597Z,6.78
2022-12-18T18:09:29.867Z,7.88
2022-12-18T18:11:57.386Z,7.95
2022-12-18T18:14:25.857Z,7.82
2022-12-18T18:16:58.212Z,7.20
2022-12-18T18:19:34.044Z,7.72
2022-12-18T18:22:01.324Z,7.68
2022-12-18T18:24:29.042Z,8.10
2022-12-18T18:26:58.473Z,8.00
2022-12-18T18:29:27.846Z,7.77
2022-12-18T18:31:58.206Z,8.25
2022-12-18T18:34:29.135Z,7.95
2022-12-18T18:36:56.808Z,7.13
2022-12-18T18:39:25.858Z,8.35
2022-12-18T18:41:53.825Z,8.93
2022-12-18T18:44:25.578Z,8.23
2022-12-18T18:46:58.231Z,7.80
2022-12-18T18:49:28.191Z,8.05
2022-12-18T18:51:59.075Z,7.65
2022-12-18T18:54:29.121Z,7.67
2022-12-18T18:57:19.916Z,7.70
2022-12-18T18:59:47.204Z,7.82
2022-12-18T19:02:16.913Z,7.85
2022-12-18T19:04:47.030Z,7.40
2022-12-18T19:07:29.641Z,7.07
2022-12-18T19:10:04.272Z,7.50
2022-12-18T19:12:33.964Z,7.35
2022-12-18T19:15:01.247Z,7.53
2022-12-18T19:17:30.593Z,7.63
2022-12-18T19:19:59.698Z,7.63
2022-12-18T19:22:27.263Z,7.38
2022-12-18T19:24:55.871Z,7.30
2022-12-18T19:27:23.785Z,6.57
2022-12-18T19:29:51.215Z,7.40
2022-12-18T19:32:19.009Z,6.90
2022-12-18T19:34:48.041Z,7.20
2022-12-18T19:37:16.151Z,7.38
2022-12-18T19:39:43.962Z,7.55
2022-12-18T19:42:13.088Z,8.30
2022-12-18T19:44:42.572Z,7.43
2022-12-18T19:47:10.625Z,8.40
2022-12-18T19:49:38.501Z,8.05
2022-12-18T19:52:06.093Z,8.57
2022-12-18T19:54:33.734Z,8.32
2022-12-18T19:57:01.310Z,8.43
2022-12-18T19:59:29.604Z,8.63
2022-12-18T20:01:57.748Z,8.88
2022-12-18T20:04:27.078Z,8.10
2022-12-18T20:06:58.570Z,9.18
2022-12-18T20:09:26.964Z,9.83
2022-12-18T20:11:56.923Z,9.45
2022-12-18T20:14:25.006Z,9.43
2022-12-18T20:16:56.711Z,10.35
2022-12-18T20:19:26.832Z,9.65
2022-12-18T20:21:54.731Z,9.63
2022-12-18T20:24:22.423Z,9.10
2022-12-18T20:26:50.068Z,9.10
2022-12-18T20:29:18.101Z,8.88
2022-12-18T20:31:46.575Z,8.68
2022-12-18T20:34:15.582Z,9.63
2022-12-18T20:36:43.580Z,9.77
2022-12-18T20:39:13.367Z,9.32
2022-12-18T20:41:41.488Z,9.38
2022-12-18T20:44:22.699Z,9.30
2022-12-18T20:46:57.127Z,9.10
2022-12-18T20:49:26.087Z,9.38
2022-12-18T20:51:55.101Z,9.52
2022-12-18T20:54:24.371Z,10.23
2022-12-18T20:56:52.224Z,10.20
2022-12-18T20:59:19.247Z,9.70
2022-12-18T21:01:48.898Z,9.48
2022-12-18T21:04:18.982Z,9.73
2022-12-18T21:06:52.882Z,9.38
2022-12-18T21:09:25.009Z,9.98
2022-12-18T21:11:52.015Z,9.70
2022-12-18T21:14:22.937Z,9.77
2022-12-18T21:16:50.643Z,10.20
2022-12-18T21:19:20.555Z,9.80
2022-12-18T21:21:47.979Z,9.27
2022-12-18T21:24:15.859Z,9.37
2022-12-18T21:26:45.791Z,10.25
2022-12-18T21:29:19.079Z,9.85
2022-12-18T21:31:47.040Z,10.18
2022-12-18T21:34:25.761Z,10.25
2022-12-18T21:36:53.737Z,9.63
2022-12-18T21:39:21.240Z,9.90
2022-12-18T21:41:50.161Z,9.65
2022-12-18T21:44:19.538Z,10.00
2022-12-18T21:46:53.126Z,10.07
2022-12-18T21:49:24.344Z,10.47
2022-12-18T21:51:56.033Z,10.07
2022-12-18T21:54:23.809Z,10.35
2022-12-18T21:56:56.261Z,9.88
2022-12-18T21:59:29.640Z,9.98
2022-12-18T22:02:00.502Z,9.80
2022-12-18T22:04:28.539Z,9.95
2022-12-18T22:06:56.733Z,10.20
2022-12-18T22:09:26.155Z,9.98
2022-12-18T22:11:53.572Z,10.20
2022-12-18T22:14:22.106Z,9.67
2022-12-18T22:16:49.977Z,10.35
2022-12-18T22:19:18.565Z,10.05
2022-12-18T22:21:49.786Z,10.50
2022-12-18T22:24:22.345Z,10.43
2022-12-18T22:26:50.354Z,11.03
2022-12-18T22:29:20.125Z,9.95
2022-12-18T22:31:47.286Z,11.02
2022-12-18T22:34:14.191Z,10.23
2022-12-18T22:36:46.589Z,10.52
2022-12-18T22:39:19.608Z,10.27
2022-12-18T22:41:46.473Z,10.30
2022-12-18T22:44:15.726Z,10.60
2022-12-18T22:46:50.803Z,10.80
2022-12-18T22:49:31.350Z,9.68
2022-12-18T22:51:59.177Z,9.60
2022-12-18T22:54:25.930Z,10.77
2022-12-18T22:56:52.633Z,10.57
2022-12-18T22:59:23.449Z,10.35
2022-12-18T23:01:54.183Z,10.20
2022-12-18T23:04:31.215Z,10.40
2022-12-18T23:07:05.104Z,12.32
2022-12-18T23:09:32.807Z,11.00
2022-12-18T23:11:59.799Z,11.02
2022-12-18T23:14:26.882Z,12.50
2022-12-18T23:16:53.634Z,14.30
2022-12-18T23:19:21.640Z,12.38
2022-12-18T23:21:51.376Z,11.52
2022-12-18T23:24:18.278Z,11.32
2022-12-18T23:26:45.164Z,11.20
2022-12-18T23:29:12.024Z,10.47
2022-12-18T23:31:39.795Z,11.88
2022-12-18T23:34:07.364Z,10.02
2022-12-18T23:36:41.835Z,9.82
2022-12-18T23:39:22.373Z,9.35
2022-12-18T23:41:59.646Z,9.27
2022-12-18T23:44:27.153Z,10.13
2022-12-18T23:46:54.025Z,9.15
2022-12-18T23:49:20.853Z,9.65
2022-12-18T23:51:47.817Z,8.75
2022-12-18T23:54:14.608Z,10.40
2022-12-18T23:56:41.482Z,9.55
2022-12-18T23:59:08.398Z,9.10
